Terminal Aerodrome Forecast
Issued by NWS Lake Charles, LA

Home | Current Version | Previous Version | Text Only | Print | Product List | Glossary On
Versions: 1 2 3 4 5 6 7 8 9 10 11 12 13 14 15 16 17
000
FTUS44 KLCH 222300
TAFARA
TAF
KARA 222339Z 2300/2324 VRB05KT P6SM VCSH SCT035 SCT250
     FM230400 VRB03KT P6SM FEW025 BKN250
      TEMPO 2309/2313 5SM BR
     FM231300 VRB05KT P6SM VCTS BKN035CB
      TEMPO 2319/2323 3SM TSRA SCT020 OVC025CB=

USA.gov is the U.S. government's official web portal to all federal, state and local government web resources and services.